PWSweather.com
Personal Weather Stations
Station Observations
WAIROAHB
Wairoa, Northern Hawkes Bay -NZ 4108

WairoaNorthern Hawkes Bay -NZ 4108

Lat: -39.04516934, Lon: 177.4263989

Elevation: 156

Station Type: WS3083

http://wairoa.net/weather/index.htm

High Low Average
Temperature 80.4°F26.9°C 64.6°F18.1°C 71.0°F21.7°C
Dew Point 71.5°F21.9°C 64.3°F17.9°C 68.2°F20.1°C
Winds 9.8 mph 15.8 kmh Calm Calm 3.0 mph S4.8 kmh S
Wind Gusts 13.0 mph20.9 kmh -- 7.0 mph11.3 kmh
Humidity 99% 66% 91%
Pressure 30.24 in1024.0 mb 30.02 in1016.6 mb -
Precipitation 0.00 in0.0 mm - -
Hour Temp Dew Point Humidity Winds Wind Gusts Pressure Precip Precip Rate Daily Precip Total
12:00 AM 69.3°F20.7°C 67.8°F19.9°C 95% Calm Calm 3.1 mph5.0 kmh 30.02 in1016.6 mb 0.00 in0.0 mm 0.00 in0.0 mm 0.00 in0.0 mm
12:10 AM 69.1°F20.6°C 67.6°F19.8°C 95% Calm Calm 3.1 mph5.0 kmh 30.02 in1016.6 mb 0.00 in0.0 mm 0.00 in0.0 mm 0.00 in0.0 mm
12:20 AM 68.7°F20.4°C 67.3°F19.6°C 95% Calm Calm 2.2 mph3.5 kmh 30.02 in1016.6 mb 0.00 in0.0 mm 0.00 in0.0 mm 0.00 in0.0 mm
12:30 AM 68.5°F20.3°C 67.4°F19.7°C 96% Calm Calm -- 30.02 in1016.6 mb 0.00 in0.0 mm 0.00 in0.0 mm 0.00 in0.0 mm
12:40 AM 68.4°F20.2°C 67.2°F19.6°C 96% 1.6 mph NW2.6 kmh NW 3.1 mph5.0 kmh 30.03 in1016.9 mb 0.00 in0.0 mm 0.00 in0.0 mm 0.00 in0.0 mm
12:50 AM 68.4°F20.2°C 67.2°F19.6°C 96% Calm Calm 3.1 mph5.0 kmh 30.03 in1016.9 mb 0.00 in0.0 mm 0.00 in0.0 mm 0.00 in0.0 mm
01:00 AM 68.2°F20.1°C 66.7°F19.3°C 95% Calm Calm -- 30.03 in1016.9 mb 0.00 in0.0 mm 0.00 in0.0 mm 0.00 in0.0 mm
01:10 AM 68.2°F20.1°C 67.0°F19.4°C 96% 4.5 mph NNW7.2 kmh NNW 5.4 mph8.7 kmh 30.02 in1016.6 mb 0.00 in0.0 mm 0.00 in0.0 mm 0.00 in0.0 mm
01:20 AM 68.2°F20.1°C 66.7°F19.3°C 95% Calm Calm 4.5 mph7.2 kmh 30.03 in1016.9 mb 0.00 in0.0 mm 0.00 in0.0 mm 0.00 in0.0 mm
01:30 AM 67.8°F19.9°C 66.7°F19.3°C 96% 2.2 mph NW3.5 kmh NW 3.8 mph6.1 kmh 30.03 in1016.9 mb 0.00 in0.0 mm 0.00 in0.0 mm 0.00 in0.0 mm
01:40 AM 67.5°F19.7°C 66.6°F19.2°C 97% 0.7 mph NW1.1 kmh NW 4.5 mph7.2 kmh 30.03 in1016.9 mb 0.00 in0.0 mm 0.00 in0.0 mm 0.00 in0.0 mm
01:50 AM 67.3°F19.6°C 66.4°F19.1°C 97% 1.6 mph NNW2.6 kmh NNW 3.8 mph6.1 kmh 30.03 in1016.9 mb 0.00 in0.0 mm 0.00 in0.0 mm 0.00 in0.0 mm
02:00 AM 66.7°F19.3°C 66.2°F19.0°C 98% 2.2 mph NW3.5 kmh NW 3.8 mph6.1 kmh 30.03 in1016.9 mb 0.00 in0.0 mm 0.00 in0.0 mm 0.00 in0.0 mm
02:10 AM 66.4°F19.1°C 65.8°F18.8°C 98% 2.2 mph NW3.5 kmh NW 4.5 mph7.2 kmh 30.03 in1016.9 mb 0.00 in0.0 mm 0.00 in0.0 mm 0.00 in0.0 mm
02:20 AM 66.2°F19.0°C 65.9°F18.8°C 99% 1.6 mph NW2.6 kmh NW 3.8 mph6.1 kmh 30.04 in1017.3 mb 0.00 in0.0 mm 0.00 in0.0 mm 0.00 in0.0 mm
02:30 AM 66.2°F19.0°C 65.9°F18.8°C 99% 1.6 mph NW2.6 kmh NW 3.8 mph6.1 kmh 30.04 in1017.3 mb 0.00 in0.0 mm 0.00 in0.0 mm 0.00 in0.0 mm
02:40 AM 66.0°F18.9°C 65.8°F18.8°C 99% 3.1 mph N5.0 kmh N 4.5 mph7.2 kmh 30.04 in1017.3 mb 0.00 in0.0 mm 0.00 in0.0 mm 0.00 in0.0 mm
02:50 AM 66.0°F18.9°C 65.8°F18.8°C 99% 2.2 mph NW3.5 kmh NW 4.5 mph7.2 kmh 30.05 in1017.6 mb 0.00 in0.0 mm 0.00 in0.0 mm 0.00 in0.0 mm
03:00 AM 66.2°F19.0°C 65.9°F18.8°C 99% 0.7 mph NW1.1 kmh NW 6.9 mph11.1 kmh 30.04 in1017.3 mb 0.00 in0.0 mm 0.00 in0.0 mm 0.00 in0.0 mm
03:10 AM 66.0°F18.9°C 65.8°F18.8°C 99% Calm Calm 4.5 mph7.2 kmh 30.04 in1017.3 mb 0.00 in0.0 mm 0.00 in0.0 mm 0.00 in0.0 mm
03:20 AM 65.7°F18.7°C 65.4°F18.6°C 99% 2.2 mph NW3.5 kmh NW 3.8 mph6.1 kmh 30.06 in1017.9 mb 0.00 in0.0 mm 0.00 in0.0 mm 0.00 in0.0 mm
03:30 AM 65.5°F18.6°C 65.2°F18.4°C 99% 3.1 mph NW5.0 kmh NW 4.5 mph7.2 kmh 30.05 in1017.6 mb 0.00 in0.0 mm 0.00 in0.0 mm 0.00 in0.0 mm
03:40 AM 65.1°F18.4°C 64.9°F18.3°C 99% 2.2 mph NW3.5 kmh NW 4.5 mph7.2 kmh 30.05 in1017.6 mb 0.00 in0.0 mm 0.00 in0.0 mm 0.00 in0.0 mm
03:50 AM 65.3°F18.5°C 65.0°F18.3°C 99% 2.2 mph NW3.5 kmh NW 5.4 mph8.7 kmh 30.06 in1017.9 mb 0.00 in0.0 mm 0.00 in0.0 mm 0.00 in0.0 mm
04:00 AM 65.3°F18.5°C 65.0°F18.3°C 99% 3.8 mph NNW6.1 kmh NNW 7.6 mph12.2 kmh 30.06 in1017.9 mb 0.00 in0.0 mm 0.00 in0.0 mm 0.00 in0.0 mm
04:10 AM 64.8°F18.2°C 64.5°F18.1°C 99% 2.2 mph NW3.5 kmh NW 5.4 mph8.7 kmh 30.06 in1017.9 mb 0.00 in0.0 mm 0.00 in0.0 mm 0.00 in0.0 mm
04:20 AM 64.8°F18.2°C 64.5°F18.1°C 99% 3.1 mph NW5.0 kmh NW 5.4 mph8.7 kmh 30.06 in1017.9 mb 0.00 in0.0 mm 0.00 in0.0 mm 0.00 in0.0 mm
04:30 AM 64.8°F18.2°C 64.5°F18.1°C 99% 1.6 mph NW2.6 kmh NW 4.5 mph7.2 kmh 30.07 in1018.3 mb 0.00 in0.0 mm 0.00 in0.0 mm 0.00 in0.0 mm
04:40 AM 64.8°F18.2°C 64.5°F18.1°C 99% 1.6 mph NNW2.6 kmh NNW 3.8 mph6.1 kmh 30.07 in1018.3 mb 0.00 in0.0 mm 0.00 in0.0 mm 0.00 in0.0 mm
04:50 AM 64.8°F18.2°C 64.5°F18.1°C 99% Calm Calm 3.1 mph5.0 kmh 30.07 in1018.3 mb 0.00 in0.0 mm 0.00 in0.0 mm 0.00 in0.0 mm
05:00 AM 64.6°F18.1°C 64.3°F17.9°C 99% Calm Calm 3.1 mph5.0 kmh 30.08 in1018.6 mb 0.00 in0.0 mm 0.00 in0.0 mm 0.00 in0.0 mm
05:10 AM 64.6°F18.1°C 64.3°F17.9°C 99% Calm Calm -- 30.08 in1018.6 mb 0.00 in0.0 mm 0.00 in0.0 mm 0.00 in0.0 mm
05:20 AM 64.6°F18.1°C 64.3°F17.9°C 99% 2.2 mph NW3.5 kmh NW 3.8 mph6.1 kmh 30.09 in1019.0 mb 0.00 in0.0 mm 0.00 in0.0 mm 0.00 in0.0 mm
05:30 AM 64.8°F18.2°C 64.5°F18.1°C 99% Calm Calm 3.8 mph6.1 kmh 30.10 in1019.3 mb 0.00 in0.0 mm 0.00 in0.0 mm 0.00 in0.0 mm
05:40 AM 64.8°F18.2°C 64.5°F18.1°C 99% 1.6 mph NNW2.6 kmh NNW 3.1 mph5.0 kmh 30.10 in1019.3 mb 0.00 in0.0 mm 0.00 in0.0 mm 0.00 in0.0 mm
05:50 AM 65.3°F18.5°C 65.0°F18.3°C 99% Calm Calm 2.2 mph3.5 kmh 30.10 in1019.3 mb 0.00 in0.0 mm 0.00 in0.0 mm 0.00 in0.0 mm
06:00 AM 65.7°F18.7°C 65.4°F18.6°C 99% 3.8 mph NW6.1 kmh NW 4.5 mph7.2 kmh 30.10 in1019.3 mb 0.00 in0.0 mm 0.00 in0.0 mm 0.00 in0.0 mm
06:10 AM 66.2°F19.0°C 65.9°F18.8°C 99% Calm Calm 4.5 mph7.2 kmh 30.11 in1019.6 mb 0.00 in0.0 mm 0.00 in0.0 mm 0.00 in0.0 mm
06:20 AM 66.4°F19.1°C 66.1°F18.9°C 99% 2.2 mph WNW3.5 kmh WNW 5.4 mph8.7 kmh 30.11 in1019.6 mb 0.00 in0.0 mm 0.00 in0.0 mm 0.00 in0.0 mm
06:30 AM 66.4°F19.1°C 66.1°F18.9°C 99% 0.7 mph NW1.1 kmh NW 5.4 mph8.7 kmh 30.12 in1020.0 mb 0.00 in0.0 mm 0.00 in0.0 mm 0.00 in0.0 mm
06:40 AM 66.7°F19.3°C 66.5°F19.2°C 99% 1.6 mph NW2.6 kmh NW 3.8 mph6.1 kmh 30.12 in1020.0 mb 0.00 in0.0 mm 0.00 in0.0 mm 0.00 in0.0 mm
06:50 AM 68.0°F20.0°C 67.7°F19.8°C 99% 6.0 mph WSW9.7 kmh WSW 8.3 mph13.4 kmh 30.12 in1020.0 mb 0.00 in0.0 mm 0.00 in0.0 mm 0.00 in0.0 mm
07:00 AM 69.8°F21.0°C 69.2°F20.7°C 98% 5.4 mph SW8.7 kmh SW 9.2 mph14.8 kmh 30.12 in1020.0 mb 0.00 in0.0 mm 0.00 in0.0 mm 0.00 in0.0 mm
07:10 AM 70.3°F21.3°C 69.2°F20.7°C 96% 6.9 mph SW11.1 kmh SW 10.7 mph17.2 kmh 30.12 in1020.0 mb 0.00 in0.0 mm 0.00 in0.0 mm 0.00 in0.0 mm
07:20 AM 70.5°F21.4°C 69.1°F20.6°C 95% 4.5 mph WSW7.2 kmh WSW 9.8 mph15.8 kmh 30.13 in1020.3 mb 0.00 in0.0 mm 0.00 in0.0 mm 0.00 in0.0 mm
07:30 AM 70.5°F21.4°C 69.1°F20.6°C 95% 6.9 mph WSW11.1 kmh WSW 9.2 mph14.8 kmh 30.13 in1020.3 mb 0.00 in0.0 mm 0.00 in0.0 mm 0.00 in0.0 mm
07:40 AM 70.7°F21.5°C 69.2°F20.7°C 95% 3.8 mph WSW6.1 kmh WSW 10.7 mph17.2 kmh 30.14 in1020.7 mb 0.00 in0.0 mm 0.00 in0.0 mm 0.00 in0.0 mm
07:50 AM 70.7°F21.5°C 69.2°F20.7°C 95% 6.9 mph SW11.1 kmh SW 10.7 mph17.2 kmh 30.14 in1020.7 mb 0.00 in0.0 mm 0.00 in0.0 mm 0.00 in0.0 mm
08:00 AM 70.5°F21.4°C 69.1°F20.6°C 95% 6.9 mph SW11.1 kmh SW 11.4 mph18.3 kmh 30.14 in1020.7 mb 0.00 in0.0 mm 0.00 in0.0 mm 0.00 in0.0 mm
08:10 AM 70.7°F21.5°C 69.2°F20.7°C 95% 4.5 mph SW7.2 kmh SW 9.2 mph14.8 kmh 30.14 in1020.7 mb 0.00 in0.0 mm 0.00 in0.0 mm 0.00 in0.0 mm
08:20 AM 70.9°F21.6°C 69.4°F20.8°C 95% 5.4 mph SW8.7 kmh SW 10.7 mph17.2 kmh 30.14 in1020.7 mb 0.00 in0.0 mm 0.00 in0.0 mm 0.00 in0.0 mm
08:30 AM 70.9°F21.6°C 69.4°F20.8°C 95% 7.6 mph SW12.2 kmh SW 12.1 mph19.5 kmh 30.15 in1021.0 mb 0.00 in0.0 mm 0.00 in0.0 mm 0.00 in0.0 mm
08:40 AM 71.4°F21.9°C 70.0°F21.1°C 95% 2.2 mph W3.5 kmh W 9.8 mph15.8 kmh 30.14 in1020.7 mb 0.00 in0.0 mm 0.00 in0.0 mm 0.00 in0.0 mm
08:50 AM 71.8°F22.1°C 69.7°F20.9°C 93% 4.5 mph WSW7.2 kmh WSW 9.2 mph14.8 kmh 30.14 in1020.7 mb 0.00 in0.0 mm 0.00 in0.0 mm 0.00 in0.0 mm
09:00 AM 71.2°F21.8°C 69.5°F20.8°C 94% 5.4 mph SW8.7 kmh SW 12.1 mph19.5 kmh 30.15 in1021.0 mb 0.00 in0.0 mm 0.00 in0.0 mm 0.00 in0.0 mm
09:10 AM 71.8°F22.1°C 69.7°F20.9°C 93% 3.8 mph WSW6.1 kmh WSW 9.2 mph14.8 kmh 30.15 in1021.0 mb 0.00 in0.0 mm 0.00 in0.0 mm 0.00 in0.0 mm
09:20 AM 71.8°F22.1°C 69.4°F20.8°C 92% 6.0 mph WSW9.7 kmh WSW 10.7 mph17.2 kmh 30.16 in1021.3 mb 0.00 in0.0 mm 0.00 in0.0 mm 0.00 in0.0 mm
09:30 AM 71.8°F22.1°C 69.4°F20.8°C 92% 6.9 mph W11.1 kmh W 9.2 mph14.8 kmh 30.15 in1021.0 mb 0.00 in0.0 mm 0.00 in0.0 mm 0.00 in0.0 mm
09:40 AM 72.0°F22.2°C 69.5°F20.8°C 92% 6.9 mph WSW11.1 kmh WSW 9.8 mph15.8 kmh 30.15 in1021.0 mb 0.00 in0.0 mm 0.00 in0.0 mm 0.00 in0.0 mm
09:50 AM 72.7°F22.6°C 69.9°F21.1°C 91% 8.3 mph WSW13.4 kmh WSW 11.4 mph18.3 kmh 30.16 in1021.3 mb 0.00 in0.0 mm 0.00 in0.0 mm 0.00 in0.0 mm
10:00 AM 72.7°F22.6°C 69.9°F21.1°C 91% 8.3 mph SW13.4 kmh SW 10.7 mph17.2 kmh 30.16 in1021.3 mb 0.00 in0.0 mm 0.00 in0.0 mm 0.00 in0.0 mm
10:10 AM 72.1°F22.3°C 69.4°F20.8°C 91% 8.3 mph SW13.4 kmh SW 11.4 mph18.3 kmh 30.16 in1021.3 mb 0.00 in0.0 mm 0.00 in0.0 mm 0.00 in0.0 mm
10:20 AM 72.1°F22.3°C 69.4°F20.8°C 91% 5.4 mph WSW8.7 kmh WSW 10.7 mph17.2 kmh 30.16 in1021.3 mb 0.00 in0.0 mm 0.00 in0.0 mm 0.00 in0.0 mm
10:30 AM 72.1°F22.3°C 69.4°F20.8°C 91% 7.6 mph WSW12.2 kmh WSW 11.4 mph18.3 kmh 30.17 in1021.7 mb 0.00 in0.0 mm 0.00 in0.0 mm 0.00 in0.0 mm
10:40 AM 72.1°F22.3°C 69.4°F20.8°C 91% 5.4 mph WSW8.7 kmh WSW 11.4 mph18.3 kmh 30.16 in1021.3 mb 0.00 in0.0 mm 0.00 in0.0 mm 0.00 in0.0 mm
10:50 AM 72.1°F22.3°C 69.1°F20.6°C 90% 8.3 mph W13.4 kmh W 10.7 mph17.2 kmh 30.16 in1021.3 mb 0.00 in0.0 mm 0.00 in0.0 mm 0.00 in0.0 mm
11:00 AM 72.1°F22.3°C 68.8°F20.4°C 89% 6.0 mph SW9.7 kmh SW 9.8 mph15.8 kmh 30.16 in1021.3 mb 0.00 in0.0 mm 0.00 in0.0 mm 0.00 in0.0 mm
11:10 AM 72.1°F22.3°C 68.4°F20.2°C 88% 6.0 mph SW9.7 kmh SW 10.7 mph17.2 kmh 30.16 in1021.3 mb 0.00 in0.0 mm 0.00 in0.0 mm 0.00 in0.0 mm
11:20 AM 72.9°F22.7°C 69.5°F20.8°C 89% 3.8 mph WSW6.1 kmh WSW 10.7 mph17.2 kmh 30.17 in1021.7 mb 0.00 in0.0 mm 0.00 in0.0 mm 0.00 in0.0 mm
11:30 AM 73.4°F23.0°C 69.7°F20.9°C 88% 9.8 mph WSW15.8 kmh WSW 12.1 mph19.5 kmh 30.17 in1021.7 mb 0.00 in0.0 mm 0.00 in0.0 mm 0.00 in0.0 mm
11:40 AM 73.6°F23.1°C 69.8°F21.0°C 88% 5.4 mph WSW8.7 kmh WSW 10.7 mph17.2 kmh 30.17 in1021.7 mb 0.00 in0.0 mm 0.00 in0.0 mm 0.00 in0.0 mm
11:50 AM 74.1°F23.4°C 69.7°F20.9°C 86% 6.0 mph WSW9.7 kmh WSW 9.8 mph15.8 kmh 30.17 in1021.7 mb 0.00 in0.0 mm 0.00 in0.0 mm 0.00 in0.0 mm
12:00 PM 74.1°F23.4°C 69.7°F20.9°C 86% 5.4 mph SW8.7 kmh SW 11.4 mph18.3 kmh 30.17 in1021.7 mb 0.00 in0.0 mm 0.00 in0.0 mm 0.00 in0.0 mm
12:10 PM 75.2°F24.0°C 70.4°F21.3°C 85% 6.9 mph WSW11.1 kmh WSW 11.4 mph18.3 kmh 30.17 in1021.7 mb 0.00 in0.0 mm 0.00 in0.0 mm 0.00 in0.0 mm
12:20 PM 74.8°F23.8°C 70.4°F21.3°C 86% 5.4 mph WSW8.7 kmh WSW 11.4 mph18.3 kmh 30.17 in1021.7 mb 0.00 in0.0 mm 0.00 in0.0 mm 0.00 in0.0 mm
12:30 PM 74.3°F23.5°C 70.2°F21.2°C 87% 4.5 mph WSW7.2 kmh WSW 11.4 mph18.3 kmh 30.17 in1021.7 mb 0.00 in0.0 mm 0.00 in0.0 mm 0.00 in0.0 mm
12:40 PM 74.8°F23.8°C 70.4°F21.3°C 86% 8.3 mph SW13.4 kmh SW 10.7 mph17.2 kmh 30.17 in1021.7 mb 0.00 in0.0 mm 0.00 in0.0 mm 0.00 in0.0 mm
12:50 PM 74.3°F23.5°C 69.9°F21.1°C 86% 6.0 mph SW9.7 kmh SW 10.7 mph17.2 kmh 30.16 in1021.3 mb 0.00 in0.0 mm 0.00 in0.0 mm 0.00 in0.0 mm
01:00 PM 75.9°F24.4°C 70.8°F21.6°C 84% 4.5 mph WSW7.2 kmh WSW 10.7 mph17.2 kmh 30.17 in1021.7 mb 0.00 in0.0 mm 0.00 in0.0 mm 0.00 in0.0 mm
01:10 PM 75.4°F24.1°C 70.3°F21.3°C 84% 6.9 mph WSW11.1 kmh WSW 13.0 mph20.9 kmh 30.16 in1021.3 mb 0.00 in0.0 mm 0.00 in0.0 mm 0.00 in0.0 mm
01:20 PM 75.7°F24.3°C 71.0°F21.7°C 85% 5.4 mph WSW8.7 kmh WSW 11.4 mph18.3 kmh 30.16 in1021.3 mb 0.00 in0.0 mm 0.00 in0.0 mm 0.00 in0.0 mm
01:30 PM 75.2°F24.0°C 70.1°F21.2°C 84% 3.8 mph WSW6.1 kmh WSW 11.4 mph18.3 kmh 30.16 in1021.3 mb 0.00 in0.0 mm 0.00 in0.0 mm 0.00 in0.0 mm
01:40 PM 75.4°F24.1°C 70.3°F21.3°C 84% 6.0 mph WSW9.7 kmh WSW 11.4 mph18.3 kmh 30.16 in1021.3 mb 0.00 in0.0 mm 0.00 in0.0 mm 0.00 in0.0 mm
01:50 PM 75.7°F24.3°C 71.0°F21.7°C 85% 7.6 mph WSW12.2 kmh WSW 9.8 mph15.8 kmh 30.17 in1021.7 mb 0.00 in0.0 mm 0.00 in0.0 mm 0.00 in0.0 mm
02:00 PM 76.5°F24.7°C 71.3°F21.8°C 84% 6.0 mph WSW9.7 kmh WSW 10.7 mph17.2 kmh 30.16 in1021.3 mb 0.00 in0.0 mm 0.00 in0.0 mm 0.00 in0.0 mm
02:10 PM 76.3°F24.6°C 71.1°F21.7°C 84% 6.0 mph WSW9.7 kmh WSW 11.4 mph18.3 kmh 30.16 in1021.3 mb 0.00 in0.0 mm 0.00 in0.0 mm 0.00 in0.0 mm
02:20 PM 76.6°F24.8°C 71.5°F21.9°C 84% 6.9 mph WSW11.1 kmh WSW 13.0 mph20.9 kmh 30.16 in1021.3 mb 0.00 in0.0 mm 0.00 in0.0 mm 0.00 in0.0 mm
02:30 PM 75.9°F24.4°C 70.8°F21.6°C 84% 5.4 mph WSW8.7 kmh WSW 11.4 mph18.3 kmh 30.17 in1021.7 mb 0.00 in0.0 mm 0.00 in0.0 mm 0.00 in0.0 mm
02:40 PM 76.8°F24.9°C 71.3°F21.8°C 83% 7.6 mph WSW12.2 kmh WSW 11.4 mph18.3 kmh 30.17 in1021.7 mb 0.00 in0.0 mm 0.00 in0.0 mm 0.00 in0.0 mm
02:50 PM 76.3°F24.6°C 71.1°F21.7°C 84% 8.3 mph WSW13.4 kmh WSW 12.1 mph19.5 kmh 30.17 in1021.7 mb 0.00 in0.0 mm 0.00 in0.0 mm 0.00 in0.0 mm
03:00 PM 77.0°F25.0°C 70.4°F21.3°C 80% 4.5 mph SW7.2 kmh SW 10.7 mph17.2 kmh 30.17 in1021.7 mb 0.00 in0.0 mm 0.00 in0.0 mm 0.00 in0.0 mm
03:10 PM 78.6°F25.9°C 71.2°F21.8°C 78% 5.4 mph WSW8.7 kmh WSW 9.2 mph14.8 kmh 30.17 in1021.7 mb 0.00 in0.0 mm 0.00 in0.0 mm 0.00 in0.0 mm
03:20 PM 78.1°F25.6°C 70.7°F21.5°C 78% 3.1 mph NW5.0 kmh NW 9.8 mph15.8 kmh 30.16 in1021.3 mb 0.00 in0.0 mm 0.00 in0.0 mm 0.00 in0.0 mm
03:30 PM 78.6°F25.9°C 71.2°F21.8°C 78% 3.8 mph SW6.1 kmh SW 10.7 mph17.2 kmh 30.17 in1021.7 mb 0.00 in0.0 mm 0.00 in0.0 mm 0.00 in0.0 mm
03:40 PM 79.5°F26.4°C 69.3°F20.7°C 71% 3.1 mph WSW5.0 kmh WSW 8.3 mph13.4 kmh 30.16 in1021.3 mb 0.00 in0.0 mm 0.00 in0.0 mm 0.00 in0.0 mm
03:50 PM 79.5°F26.4°C 68.5°F20.3°C 69% 5.4 mph SW8.7 kmh SW 6.9 mph11.1 kmh 30.17 in1021.7 mb 0.00 in0.0 mm 0.00 in0.0 mm 0.00 in0.0 mm
04:00 PM 80.4°F26.9°C 68.9°F20.5°C 68% 3.8 mph NNW6.1 kmh NNW 8.3 mph13.4 kmh 30.17 in1021.7 mb 0.00 in0.0 mm 0.00 in0.0 mm 0.00 in0.0 mm
04:10 PM 79.9°F26.6°C 67.6°F19.8°C 66% 5.4 mph SW8.7 kmh SW 9.2 mph14.8 kmh 30.17 in1021.7 mb 0.00 in0.0 mm 0.00 in0.0 mm 0.00 in0.0 mm
04:20 PM 79.0°F26.1°C 67.6°F19.8°C 68% 6.0 mph SSW9.7 kmh SSW 9.8 mph15.8 kmh 30.17 in1021.7 mb 0.00 in0.0 mm 0.00 in0.0 mm 0.00 in0.0 mm
04:30 PM 78.6°F25.9°C 68.1°F20.1°C 70% 4.5 mph NNW7.2 kmh NNW 9.2 mph14.8 kmh 30.17 in1021.7 mb 0.00 in0.0 mm 0.00 in0.0 mm 0.00 in0.0 mm
04:40 PM 79.9°F26.6°C 68.4°F20.2°C 68% 6.0 mph WNW9.7 kmh WNW 8.3 mph13.4 kmh 30.17 in1021.7 mb 0.00 in0.0 mm 0.00 in0.0 mm 0.00 in0.0 mm
04:50 PM 79.2°F26.2°C 69.0°F20.6°C 71% 6.0 mph SW9.7 kmh SW 9.2 mph14.8 kmh 30.18 in1022.0 mb 0.00 in0.0 mm 0.00 in0.0 mm 0.00 in0.0 mm
05:00 PM 78.8°F26.0°C 68.6°F20.3°C 71% 3.8 mph W6.1 kmh W 9.8 mph15.8 kmh 30.17 in1021.7 mb 0.00 in0.0 mm 0.00 in0.0 mm 0.00 in0.0 mm
05:10 PM 79.2°F26.2°C 69.4°F20.8°C 72% 5.4 mph SW8.7 kmh SW 7.6 mph12.2 kmh 30.17 in1021.7 mb 0.00 in0.0 mm 0.00 in0.0 mm 0.00 in0.0 mm
05:20 PM 78.3°F25.7°C 68.9°F20.5°C 73% 6.0 mph E9.7 kmh E 9.8 mph15.8 kmh 30.17 in1021.7 mb 0.00 in0.0 mm 0.00 in0.0 mm 0.00 in0.0 mm
05:30 PM 78.8°F26.0°C 69.5°F20.8°C 73% 2.2 mph S3.5 kmh S 7.6 mph12.2 kmh 30.17 in1021.7 mb 0.00 in0.0 mm 0.00 in0.0 mm 0.00 in0.0 mm
05:40 PM 78.6°F25.9°C 70.1°F21.2°C 75% 4.5 mph ESE7.2 kmh ESE 7.6 mph12.2 kmh 30.18 in1022.0 mb 0.00 in0.0 mm 0.00 in0.0 mm 0.00 in0.0 mm
05:50 PM 77.7°F25.4°C 70.0°F21.1°C 77% 1.6 mph SE2.6 kmh SE 7.6 mph12.2 kmh 30.18 in1022.0 mb 0.00 in0.0 mm 0.00 in0.0 mm 0.00 in0.0 mm
06:00 PM 76.6°F24.8°C 70.1°F21.2°C 80% 3.8 mph SE6.1 kmh SE 9.2 mph14.8 kmh 30.19 in1022.4 mb 0.00 in0.0 mm 0.00 in0.0 mm 0.00 in0.0 mm
06:10 PM 74.3°F23.5°C 69.9°F21.1°C 86% 4.5 mph SE7.2 kmh SE 8.3 mph13.4 kmh 30.18 in1022.0 mb 0.00 in0.0 mm 0.00 in0.0 mm 0.00 in0.0 mm
06:20 PM 73.0°F22.8°C 69.0°F20.6°C 87% 3.1 mph SE5.0 kmh SE 7.6 mph12.2 kmh 30.19 in1022.4 mb 0.00 in0.0 mm 0.00 in0.0 mm 0.00 in0.0 mm
06:30 PM 72.9°F22.7°C 69.8°F21.0°C 90% 2.2 mph WSW3.5 kmh WSW 4.5 mph7.2 kmh 30.19 in1022.4 mb 0.00 in0.0 mm 0.00 in0.0 mm 0.00 in0.0 mm
06:40 PM 72.3°F22.4°C 69.6°F20.9°C 91% 3.1 mph WSW5.0 kmh WSW 5.4 mph8.7 kmh 30.20 in1022.7 mb 0.00 in0.0 mm 0.00 in0.0 mm 0.00 in0.0 mm
06:50 PM 73.4°F23.0°C 71.3°F21.8°C 93% 1.6 mph WSW2.6 kmh WSW 4.5 mph7.2 kmh 30.20 in1022.7 mb 0.00 in0.0 mm 0.00 in0.0 mm 0.00 in0.0 mm
07:00 PM 73.4°F23.0°C 70.7°F21.5°C 91% 1.6 mph SSE2.6 kmh SSE 5.4 mph8.7 kmh 30.20 in1022.7 mb 0.00 in0.0 mm 0.00 in0.0 mm 0.00 in0.0 mm
07:10 PM 72.9°F22.7°C 70.1°F21.2°C 91% 2.2 mph SE3.5 kmh SE 5.4 mph8.7 kmh 30.20 in1022.7 mb 0.00 in0.0 mm 0.00 in0.0 mm 0.00 in0.0 mm
07:20 PM 72.3°F22.4°C 69.6°F20.9°C 91% 2.2 mph E3.5 kmh E 3.8 mph6.1 kmh 30.19 in1022.4 mb 0.00 in0.0 mm 0.00 in0.0 mm 0.00 in0.0 mm
07:30 PM 72.1°F22.3°C 69.4°F20.8°C 91% 2.2 mph E3.5 kmh E 3.8 mph6.1 kmh 30.19 in1022.4 mb 0.00 in0.0 mm 0.00 in0.0 mm 0.00 in0.0 mm
07:40 PM 72.1°F22.3°C 69.4°F20.8°C 91% 0.7 mph E1.1 kmh E 9.2 mph14.8 kmh 30.19 in1022.4 mb 0.00 in0.0 mm 0.00 in0.0 mm 0.00 in0.0 mm
07:50 PM 72.0°F22.2°C 69.2°F20.7°C 91% 3.8 mph E6.1 kmh E 10.7 mph17.2 kmh 30.19 in1022.4 mb 0.00 in0.0 mm 0.00 in0.0 mm 0.00 in0.0 mm
08:00 PM 71.6°F22.0°C 68.9°F20.5°C 91% 3.1 mph ENE5.0 kmh ENE 8.3 mph13.4 kmh 30.19 in1022.4 mb 0.00 in0.0 mm 0.00 in0.0 mm 0.00 in0.0 mm
08:10 PM 71.4°F21.9°C 69.0°F20.6°C 92% 3.1 mph E5.0 kmh E 7.6 mph12.2 kmh 30.20 in1022.7 mb 0.00 in0.0 mm 0.00 in0.0 mm 0.00 in0.0 mm
08:20 PM 71.1°F21.7°C 68.7°F20.4°C 92% 3.8 mph ENE6.1 kmh ENE 8.3 mph13.4 kmh 30.19 in1022.4 mb 0.00 in0.0 mm 0.00 in0.0 mm 0.00 in0.0 mm
08:30 PM 70.9°F21.6°C 68.8°F20.4°C 93% 1.6 mph NE2.6 kmh NE 6.0 mph9.7 kmh 30.20 in1022.7 mb 0.00 in0.0 mm 0.00 in0.0 mm 0.00 in0.0 mm
08:40 PM 70.2°F21.2°C 68.1°F20.1°C 93% 1.6 mph NNE2.6 kmh NNE 3.8 mph6.1 kmh 30.20 in1022.7 mb 0.00 in0.0 mm 0.00 in0.0 mm 0.00 in0.0 mm
08:50 PM 69.8°F21.0°C 68.0°F20.0°C 94% Calm Calm 3.8 mph6.1 kmh 30.21 in1023.0 mb 0.00 in0.0 mm 0.00 in0.0 mm 0.00 in0.0 mm
09:00 PM 69.6°F20.9°C 68.5°F20.3°C 96% Calm Calm 4.5 mph7.2 kmh 30.21 in1023.0 mb 0.00 in0.0 mm 0.00 in0.0 mm 0.00 in0.0 mm
09:10 PM 69.3°F20.7°C 68.1°F20.1°C 96% Calm Calm -- 30.22 in1023.4 mb 0.00 in0.0 mm 0.00 in0.0 mm 0.00 in0.0 mm
09:20 PM 68.7°F20.4°C 67.9°F19.9°C 97% Calm Calm -- 30.22 in1023.4 mb 0.00 in0.0 mm 0.00 in0.0 mm 0.00 in0.0 mm
09:30 PM 68.5°F20.3°C 67.7°F19.8°C 97% Calm Calm -- 30.23 in1023.7 mb 0.00 in0.0 mm 0.00 in0.0 mm 0.00 in0.0 mm
09:40 PM 68.0°F20.0°C 67.1°F19.5°C 97% Calm Calm -- 30.23 in1023.7 mb 0.00 in0.0 mm 0.00 in0.0 mm 0.00 in0.0 mm
09:50 PM 67.8°F19.9°C 67.6°F19.8°C 99% Calm Calm -- 30.23 in1023.7 mb 0.00 in0.0 mm 0.00 in0.0 mm 0.00 in0.0 mm
10:00 PM 67.6°F19.8°C 67.4°F19.7°C 99% Calm Calm -- 30.24 in1024.0 mb 0.00 in0.0 mm 0.00 in0.0 mm 0.00 in0.0 mm
10:10 PM 67.6°F19.8°C 67.4°F19.7°C 99% Calm Calm 1.6 mph2.6 kmh 30.24 in1024.0 mb 0.00 in0.0 mm 0.00 in0.0 mm 0.00 in0.0 mm
10:20 PM 67.5°F19.7°C 67.2°F19.6°C 99% 1.6 mph N2.6 kmh N 3.1 mph5.0 kmh 30.23 in1023.7 mb 0.00 in0.0 mm 0.00 in0.0 mm 0.00 in0.0 mm
10:30 PM 67.1°F19.5°C 66.8°F19.3°C 99% Calm Calm 2.2 mph3.5 kmh 30.23 in1023.7 mb 0.00 in0.0 mm 0.00 in0.0 mm 0.00 in0.0 mm
10:40 PM 66.7°F19.3°C 66.5°F19.2°C 99% Calm Calm -- 30.24 in1024.0 mb 0.00 in0.0 mm 0.00 in0.0 mm 0.00 in0.0 mm
10:50 PM 66.6°F19.2°C 66.3°F19.1°C 99% Calm Calm -- 30.24 in1024.0 mb 0.00 in0.0 mm 0.00 in0.0 mm 0.00 in0.0 mm
11:00 PM 66.2°F19.0°C 65.9°F18.8°C 99% Calm Calm -- 30.24 in1024.0 mb 0.00 in0.0 mm 0.00 in0.0 mm 0.00 in0.0 mm
11:10 PM 66.0°F18.9°C 65.8°F18.8°C 99% Calm Calm -- 30.24 in1024.0 mb 0.00 in0.0 mm 0.00 in0.0 mm 0.00 in0.0 mm
11:20 PM 65.8°F18.8°C 65.6°F18.7°C 99% Calm Calm -- 30.24 in1024.0 mb 0.00 in0.0 mm 0.00 in0.0 mm 0.00 in0.0 mm
11:30 PM 65.7°F18.7°C 65.4°F18.6°C 99% Calm Calm -- 30.24 in1024.0 mb 0.00 in0.0 mm 0.00 in0.0 mm 0.00 in0.0 mm
11:40 PM 65.7°F18.7°C 65.4°F18.6°C 99% Calm Calm -- 30.24 in1024.0 mb 0.00 in0.0 mm 0.00 in0.0 mm 0.00 in0.0 mm
11:50 PM 65.8°F18.8°C 65.6°F18.7°C 99% Calm Calm 3.1 mph5.0 kmh 30.23 in1023.7 mb 0.00 in0.0 mm 0.00 in0.0 mm 0.00 in0.0 mm